ENFB/FBU METAR and TAF weather

Enter ICAO airport designator
Station Type Date Time Source
ENFB METAR 2019/02/23 22:50 UTC NOAA

ENFB 232250Z AUTO 21034KT 8000NDV BKN051/// 09/08 Q1023 W///S5


Station Type Date Time Source
ENFB Decoded METAR 2019/02/23 22:50 UTC NOAA

Oslo / Fornebu, Norway (ENFB) 59-54N 010-38E 17M
Feb 23, 2019 - 05:50 PM EST / 2019.02.23 2250 UTC
Wind: from the SSW (210 degrees) at 39 MPH (34 KT):0
Sky conditions: mostly cloudy
Temperature: 48 F (9 C)
Dew Point: 46 F (8 C)
Relative Humidity: 93%
Pressure (altimeter): 30.21 in. Hg (1023 hPa)
ob: ENFB 232250Z AUTO 21034KT 8000NDV BKN051/// 09/08 Q1023 W///S5
cycle: 23

Station Type Date Time Source
ENFB TAF UTC NOAA

Error!


Example: see airport list